createdAt,value
2023-02-09T00:02:20.030Z,76.51
2023-02-09T00:04:50.073Z,76.37
2023-02-09T00:07:17.059Z,76.81
2023-02-09T00:09:45.626Z,76.85
2023-02-09T00:12:34.643Z,76.75
2023-02-09T00:15:01.830Z,76.97
2023-02-09T00:17:28.929Z,76.82
2023-02-09T00:19:57.655Z,77.10
2023-02-09T00:22:27.315Z,76.89
2023-02-09T00:24:57.049Z,77.18
2023-02-09T00:27:24.407Z,77.09
2023-02-09T00:29:53.989Z,76.86
2023-02-09T00:32:20.916Z,77.34
2023-02-09T00:34:47.994Z,77.20
2023-02-09T00:37:18.268Z,77.18
2023-02-09T00:39:46.189Z,77.46
2023-02-09T00:42:14.007Z,77.16
2023-02-09T00:44:42.797Z,77.10
2023-02-09T00:47:10.725Z,77.09
2023-02-09T00:49:40.232Z,77.27
2023-02-09T00:52:09.832Z,77.11
2023-02-09T00:54:37.170Z,77.09
2023-02-09T00:57:05.627Z,77.05
2023-02-09T00:59:35.431Z,77.17
2023-02-09T01:02:03.039Z,77.26
2023-02-09T01:04:30.276Z,77.25
2023-02-09T01:06:57.262Z,77.38
2023-02-09T01:09:27.946Z,77.28
2023-02-09T01:11:55.080Z,77.49
2023-02-09T01:14:25.551Z,77.54
2023-02-09T01:16:52.769Z,77.41
2023-02-09T01:19:19.939Z,77.53
2023-02-09T01:21:50.261Z,77.34
2023-02-09T01:24:17.602Z,77.63
2023-02-09T01:26:45.025Z,77.49
2023-02-09T01:29:23.483Z,77.40
2023-02-09T01:31:50.738Z,77.58
2023-02-09T01:34:21.032Z,77.53
2023-02-09T01:36:49.478Z,77.66
2023-02-09T01:39:17.299Z,77.48
2023-02-09T01:41:45.101Z,77.69
2023-02-09T01:44:42.684Z,77.53
2023-02-09T01:47:16.229Z,77.80
2023-02-09T01:49:45.215Z,77.56
2023-02-09T01:52:18.803Z,77.84
2023-02-09T01:54:50.906Z,77.63
2023-02-09T01:57:21.404Z,77.60
2023-02-09T01:59:55.314Z,77.56
2023-02-09T02:02:23.634Z,77.64
2023-02-09T02:04:51.508Z,77.45
2023-02-09T02:07:26.410Z,77.66
2023-02-09T02:09:54.537Z,77.71
2023-02-09T02:12:21.972Z,77.75
2023-02-09T02:14:48.995Z,77.78
2023-02-09T02:17:29.199Z,78.19
2023-02-09T02:20:29.175Z,78.11
2023-02-09T02:23:06.436Z,78.21
2023-02-09T02:26:08.753Z,77.97
2023-02-09T02:29:07.636Z,77.99
2023-02-09T02:32:11.423Z,78.01
2023-02-09T02:34:47.111Z,78.27
2023-02-09T02:37:25.520Z,78.34
2023-02-09T02:40:00.218Z,78.35
2023-02-09T02:42:54.955Z,78.43
2023-02-09T02:45:30.215Z,78.29
2023-02-09T02:48:08.222Z,78.36
2023-02-09T02:50:46.247Z,78.50
2023-02-09T02:53:19.092Z,78.61
2023-02-09T02:56:01.139Z,78.61
2023-02-09T02:58:30.395Z,78.40
2023-02-09T03:01:01.450Z,78.65
2023-02-09T03:03:33.764Z,78.42
2023-02-09T03:06:04.136Z,78.44
2023-02-09T03:08:31.386Z,78.23
2023-02-09T03:10:58.518Z,78.45
2023-02-09T03:13:54.095Z,78.53
2023-02-09T03:16:28.713Z,78.30
2023-02-09T03:19:11.167Z,78.26
2023-02-09T03:21:47.138Z,78.17
2023-02-09T03:24:25.885Z,78.23
2023-02-09T03:26:56.810Z,78.12
2023-02-09T03:29:29.383Z,78.28
2023-02-09T03:31:57.412Z,78.31
2023-02-09T03:34:24.667Z,78.29
2023-02-09T03:36:56.303Z,77.83
2023-02-09T03:39:23.363Z,78.16
2023-02-09T03:41:50.320Z,78.18
2023-02-09T03:44:29.776Z,77.77
2023-02-09T03:46:58.458Z,78.08
2023-02-09T03:49:30.428Z,78.14
2023-02-09T03:52:01.934Z,77.98
2023-02-09T03:54:40.774Z,77.74
2023-02-09T03:57:08.431Z,78.06
2023-02-09T03:59:37.813Z,77.82
2023-02-09T04:02:10.351Z,78.12
2023-02-09T04:04:57.621Z,78.08
2023-02-09T04:07:39.103Z,78.20
2023-02-09T04:10:26.267Z,78.20
2023-02-09T04:12:53.147Z,78.19
2023-02-09T04:15:22.368Z,77.97
2023-02-09T04:17:52.575Z,78.25
2023-02-09T04:20:19.894Z,78.30
2023-02-09T04:22:49.760Z,78.25
2023-02-09T04:25:17.126Z,78.27
2023-02-09T04:27:47.256Z,78.14
2023-02-09T04:30:19.322Z,78.10
2023-02-09T04:32:46.292Z,78.00
2023-02-09T04:35:13.447Z,78.13
2023-02-09T04:37:40.438Z,78.10
2023-02-09T04:40:08.975Z,77.84
2023-02-09T04:42:36.061Z,78.13
2023-02-09T04:45:03.319Z,78.01
2023-02-09T04:47:30.231Z,77.99
2023-02-09T04:49:57.212Z,78.00
2023-02-09T04:52:24.383Z,78.20
2023-02-09T04:54:51.471Z,78.02
2023-02-09T04:57:38.558Z,78.22
2023-02-09T05:00:06.233Z,78.18
2023-02-09T05:02:35.708Z,78.02
2023-02-09T05:05:03.393Z,77.97
2023-02-09T05:07:30.542Z,78.01
2023-02-09T05:09:57.599Z,78.04
2023-02-09T05:12:24.695Z,78.11
2023-02-09T05:14:51.751Z,78.36
2023-02-09T05:17:21.163Z,78.14
2023-02-09T05:19:51.914Z,78.16
2023-02-09T05:22:19.214Z,78.28
2023-02-09T05:24:46.223Z,78.24
2023-02-09T05:27:13.576Z,78.37
2023-02-09T05:29:40.748Z,78.47
2023-02-09T05:32:08.149Z,78.54
2023-02-09T05:34:35.463Z,78.43
2023-02-09T05:37:02.832Z,78.45
2023-02-09T05:39:32.918Z,78.70
2023-02-09T05:42:18.028Z,78.60
2023-02-09T05:44:45.794Z,78.66
2023-02-09T05:47:18.139Z,78.78
2023-02-09T05:49:54.776Z,78.81
2023-02-09T05:52:22.745Z,78.86
2023-02-09T05:54:51.339Z,78.93
2023-02-09T05:57:19.058Z,78.82
2023-02-09T05:59:46.158Z,78.92
2023-02-09T06:02:13.597Z,78.96
2023-02-09T06:04:40.844Z,78.97
2023-02-09T06:07:09.931Z,79.12
2023-02-09T06:09:37.995Z,79.23
2023-02-09T06:12:05.220Z,79.34
2023-02-09T06:14:32.315Z,79.48
2023-02-09T06:16:59.390Z,79.53
2023-02-09T06:19:26.549Z,79.39
2023-02-09T06:21:54.300Z,79.68
2023-02-09T06:24:21.455Z,79.43
2023-02-09T06:26:48.497Z,79.37
2023-02-09T06:29:15.749Z,79.40
2023-02-09T06:31:42.954Z,79.46
2023-02-09T06:34:10.902Z,79.52
2023-02-09T06:36:38.026Z,79.55
2023-02-09T06:39:07.769Z,79.36
2023-02-09T06:41:34.710Z,79.50
2023-02-09T06:44:02.270Z,79.29
2023-02-09T06:46:33.682Z,79.40
2023-02-09T06:49:00.728Z,79.29
2023-02-09T06:51:28.199Z,79.10
2023-02-09T06:53:55.352Z,79.74
2023-02-09T06:56:24.949Z,78.99
2023-02-09T06:58:52.563Z,78.31
2023-02-09T07:01:22.659Z,78.08
2023-02-09T07:03:49.597Z,77.00
2023-02-09T07:06:21.355Z,76.50
2023-02-09T07:08:49.817Z,74.97
2023-02-09T07:11:18.921Z,74.12
2023-02-09T07:13:47.003Z,73.49
2023-02-09T07:16:14.371Z,72.49
2023-02-09T07:18:41.521Z,71.90
2023-02-09T07:21:12.628Z,71.91
2023-02-09T07:23:40.228Z,70.85
2023-02-09T07:26:09.161Z,70.37
2023-02-09T07:28:47.918Z,69.26
2023-02-09T07:31:35.803Z,67.57
2023-02-09T07:34:05.924Z,67.38
2023-02-09T07:36:53.041Z,67.21
2023-02-09T07:39:39.209Z,66.74
2023-02-09T07:42:09.395Z,66.23
2023-02-09T07:44:51.529Z,64.43
2023-02-09T07:47:21.285Z,63.07
2023-02-09T07:49:48.379Z,63.11
2023-02-09T07:52:15.711Z,63.77
2023-02-09T07:54:42.912Z,62.42
2023-02-09T07:57:10.094Z,62.10
2023-02-09T07:59:37.747Z,61.82
2023-02-09T08:02:05.767Z,61.98
2023-02-09T08:04:36.301Z,61.87
2023-02-09T08:07:05.818Z,60.62
2023-02-09T08:09:35.542Z,58.83
2023-02-09T08:12:06.457Z,59.94
2023-02-09T08:14:39.974Z,59.70
2023-02-09T08:17:24.343Z,59.44
2023-02-09T08:19:54.048Z,58.35
2023-02-09T08:22:22.784Z,58.59
2023-02-09T08:24:50.471Z,57.80
2023-02-09T08:27:17.617Z,56.59
2023-02-09T08:29:44.662Z,54.94
2023-02-09T08:32:11.749Z,54.94
2023-02-09T08:34:38.811Z,54.80
2023-02-09T08:37:14.261Z,54.23
2023-02-09T08:39:41.134Z,53.51
2023-02-09T08:42:08.304Z,51.46
2023-02-09T08:44:35.687Z,51.41
2023-02-09T08:47:02.962Z,50.76
2023-02-09T08:49:30.366Z,51.79
2023-02-09T08:51:57.633Z,51.91
2023-02-09T08:54:25.511Z,50.95
2023-02-09T08:56:52.613Z,49.27
2023-02-09T08:59:20.213Z,49.68
2023-02-09T09:01:47.272Z,49.21
2023-02-09T09:04:14.303Z,48.90
2023-02-09T09:06:44.169Z,49.82
2023-02-09T09:09:11.856Z,49.16
2023-02-09T09:11:39.221Z,48.49
2023-02-09T09:14:06.439Z,47.96
2023-02-09T09:16:33.393Z,47.57
2023-02-09T09:19:00.351Z,46.82
2023-02-09T09:21:27.608Z,47.21
2023-02-09T09:23:54.788Z,46.42
2023-02-09T09:26:21.906Z,46.02
2023-02-09T09:28:52.105Z,46.15
2023-02-09T09:31:20.186Z,45.88
2023-02-09T09:33:47.861Z,45.60
2023-02-09T09:36:15.964Z,44.89
2023-02-09T09:38:45.818Z,45.02
2023-02-09T09:41:23.856Z,45.29
2023-02-09T09:43:52.034Z,44.56
2023-02-09T09:46:22.124Z,44.09
2023-02-09T09:48:52.819Z,44.27
2023-02-09T09:51:25.888Z,45.13
2023-02-09T09:53:56.012Z,45.11
2023-02-09T09:56:25.020Z,43.74
2023-02-09T09:58:54.464Z,45.58
2023-02-09T10:01:23.694Z,46.03
2023-02-09T10:03:50.673Z,45.13
2023-02-09T10:06:20.829Z,44.12
2023-02-09T10:08:53.961Z,44.91
2023-02-09T10:11:28.901Z,44.91
2023-02-09T10:13:57.509Z,45.09
2023-02-09T10:16:27.393Z,45.85
2023-02-09T10:18:56.129Z,45.90
2023-02-09T10:21:25.177Z,46.79
2023-02-09T10:24:04.805Z,46.49
2023-02-09T10:26:33.793Z,45.57
2023-02-09T10:29:08.451Z,45.96
2023-02-09T10:31:40.024Z,46.62
2023-02-09T10:34:14.825Z,47.21
2023-02-09T10:36:51.569Z,47.50
2023-02-09T10:39:23.615Z,47.76
2023-02-09T10:41:53.281Z,48.37
2023-02-09T10:44:25.179Z,48.29
2023-02-09T10:47:09.777Z,47.88
2023-02-09T10:49:40.050Z,47.95
2023-02-09T10:52:18.436Z,48.76
2023-02-09T10:54:48.964Z,49.27
2023-02-09T10:57:26.238Z,48.94
2023-02-09T10:59:58.987Z,49.60
2023-02-09T11:02:43.197Z,49.74
2023-02-09T11:05:29.257Z,50.03
2023-02-09T11:08:00.165Z,50.42
2023-02-09T11:10:30.716Z,51.24
2023-02-09T11:12:58.417Z,50.52
2023-02-09T11:15:31.257Z,50.05
2023-02-09T11:18:06.921Z,49.46
2023-02-09T11:20:41.488Z,50.03
2023-02-09T11:23:37.112Z,50.45
2023-02-09T11:26:10.367Z,50.48
2023-02-09T11:28:48.897Z,50.26
2023-02-09T11:31:31.989Z,50.28
2023-02-09T11:34:07.106Z,49.57
2023-02-09T11:36:47.132Z,49.80
2023-02-09T11:39:20.378Z,49.64
2023-02-09T11:42:13.785Z,49.56
2023-02-09T11:44:47.778Z,49.88
2023-02-09T11:47:20.682Z,49.44
2023-02-09T11:49:50.334Z,48.74
2023-02-09T11:52:22.191Z,47.89
2023-02-09T11:54:55.269Z,47.36
2023-02-09T11:57:32.722Z,47.31
2023-02-09T12:00:02.644Z,46.53
2023-02-09T12:02:46.422Z,46.41
2023-02-09T12:05:20.348Z,47.19
2023-02-09T12:08:07.296Z,46.90
2023-02-09T12:10:42.608Z,45.94
2023-02-09T12:13:23.378Z,46.62
2023-02-09T12:16:05.885Z,46.65
2023-02-09T12:18:36.544Z,46.61
2023-02-09T12:21:06.407Z,47.62
2023-02-09T12:23:46.766Z,45.44
2023-02-09T12:26:41.334Z,45.71
2023-02-09T12:29:34.000Z,46.30
2023-02-09T12:32:42.983Z,46.41
2023-02-09T12:35:28.510Z,47.13
2023-02-09T12:38:10.288Z,46.88
2023-02-09T12:40:39.878Z,47.59
2023-02-09T12:43:13.333Z,47.45
2023-02-09T12:45:41.885Z,47.18
2023-02-09T12:48:19.427Z,47.58
2023-02-09T12:50:54.229Z,47.83
2023-02-09T12:53:50.814Z,47.95
2023-02-09T12:56:32.832Z,48.23
2023-02-09T12:59:14.710Z,49.06
2023-02-09T13:02:13.186Z,48.88
2023-02-09T13:04:45.130Z,48.68
2023-02-09T13:07:23.847Z,48.93
2023-02-09T13:09:53.289Z,48.99
2023-02-09T13:12:25.138Z,48.89
2023-02-09T13:14:53.740Z,48.36
2023-02-09T13:17:39.492Z,48.64
2023-02-09T13:20:29.329Z,48.21
2023-02-09T13:23:14.776Z,47.86
2023-02-09T13:25:44.263Z,47.65
2023-02-09T13:28:18.241Z,47.93
2023-02-09T13:30:46.234Z,48.20
2023-02-09T13:33:30.795Z,48.08
2023-02-09T13:36:19.621Z,47.62
2023-02-09T13:38:54.540Z,47.08
2023-02-09T13:41:33.222Z,47.38
2023-02-09T13:44:03.011Z,47.43
2023-02-09T13:46:35.321Z,47.44
2023-02-09T13:49:16.890Z,47.16
2023-02-09T13:51:44.229Z,46.67
2023-02-09T13:54:21.363Z,46.75
2023-02-09T13:56:48.815Z,47.24
2023-02-09T13:59:17.843Z,47.00
2023-02-09T14:01:46.480Z,46.56
2023-02-09T14:04:17.375Z,46.43
2023-02-09T14:06:48.635Z,46.62
2023-02-09T14:09:25.117Z,46.13
2023-02-09T14:11:57.999Z,46.42
2023-02-09T14:14:51.811Z,46.96
2023-02-09T14:17:27.349Z,46.85
2023-02-09T14:19:55.552Z,46.26
2023-02-09T14:22:37.144Z,46.72
2023-02-09T14:25:29.618Z,46.26
2023-02-09T14:27:58.353Z,46.58
2023-02-09T14:30:27.952Z,46.32
2023-02-09T14:33:00.365Z,46.88
2023-02-09T14:35:42.145Z,46.86
2023-02-09T14:38:36.310Z,46.80
2023-02-09T14:41:34.635Z,46.75
2023-02-09T14:44:22.694Z,47.08
2023-02-09T14:47:01.929Z,47.05
2023-02-09T14:49:30.043Z,47.44
2023-02-09T14:52:05.472Z,47.11
2023-02-09T14:54:52.969Z,47.73
2023-02-09T14:57:21.387Z,47.07
2023-02-09T14:59:59.023Z,47.32
2023-02-09T15:02:28.332Z,47.26
2023-02-09T15:04:56.527Z,47.57
2023-02-09T15:07:30.058Z,47.89
2023-02-09T15:09:57.164Z,48.22
2023-02-09T15:12:27.537Z,48.30
2023-02-09T15:14:58.844Z,48.48
2023-02-09T15:17:30.312Z,48.60
2023-02-09T15:19:58.415Z,48.95
2023-02-09T15:22:26.175Z,48.86
2023-02-09T15:24:54.667Z,49.15
2023-02-09T15:27:33.891Z,49.19
2023-02-09T15:30:04.384Z,49.54
2023-02-09T15:32:32.230Z,49.50
2023-02-09T15:34:59.348Z,49.84
2023-02-09T15:37:29.547Z,49.76
2023-02-09T15:40:00.039Z,50.00
2023-02-09T15:42:47.241Z,50.32
2023-02-09T15:45:43.823Z,50.59
2023-02-09T15:48:11.663Z,50.99
2023-02-09T15:50:45.571Z,51.10
2023-02-09T15:53:18.798Z,51.17
2023-02-09T15:55:58.743Z,51.48
2023-02-09T15:58:35.220Z,51.53
2023-02-09T16:01:23.642Z,51.74
2023-02-09T16:04:13.395Z,51.99
2023-02-09T16:06:47.599Z,51.97
2023-02-09T16:09:20.298Z,52.25
2023-02-09T16:11:48.568Z,52.20
2023-02-09T16:14:20.525Z,52.41
2023-02-09T16:16:48.326Z,52.67
2023-02-09T16:19:16.942Z,52.71
2023-02-09T16:21:47.329Z,52.92
2023-02-09T16:24:23.108Z,52.92
2023-02-09T16:26:50.369Z,53.18
2023-02-09T16:29:19.961Z,53.23
2023-02-09T16:31:46.944Z,53.38
2023-02-09T16:34:15.670Z,53.40
2023-02-09T16:36:44.181Z,53.70
2023-02-09T16:39:19.710Z,53.63
2023-02-09T16:41:50.816Z,53.68
2023-02-09T16:44:21.338Z,53.91
2023-02-09T16:46:49.784Z,53.87
2023-02-09T16:49:28.237Z,54.06
2023-02-09T16:51:56.651Z,54.25
2023-02-09T16:54:24.330Z,54.43
2023-02-09T16:56:54.493Z,54.50
2023-02-09T16:59:21.972Z,54.56
2023-02-09T17:01:49.492Z,54.61
2023-02-09T17:04:16.700Z,54.73
2023-02-09T17:06:45.123Z,54.92
2023-02-09T17:09:17.793Z,54.74
2023-02-09T17:11:45.233Z,54.82
2023-02-09T17:14:12.802Z,55.15
2023-02-09T17:16:43.492Z,55.24
2023-02-09T17:19:18.194Z,55.07
2023-02-09T17:21:45.663Z,55.44
2023-02-09T17:24:17.898Z,55.32
2023-02-09T17:26:45.632Z,55.45
2023-02-09T17:29:13.411Z,55.69
2023-02-09T17:31:52.942Z,55.62
2023-02-09T17:34:27.198Z,55.84
2023-02-09T17:36:54.465Z,55.93
2023-02-09T17:39:21.568Z,55.91
2023-02-09T17:41:50.081Z,56.03
2023-02-09T17:44:29.018Z,56.20
2023-02-09T17:47:03.494Z,56.17
2023-02-09T17:49:30.471Z,56.21
2023-02-09T17:51:57.496Z,56.21
2023-02-09T17:54:24.563Z,56.39
2023-02-09T17:56:51.655Z,56.61
2023-02-09T17:59:20.353Z,56.53
2023-02-09T18:01:50.507Z,56.62
2023-02-09T18:04:26.861Z,56.54
2023-02-09T18:06:56.040Z,56.86
2023-02-09T18:09:44.890Z,57.05
2023-02-09T18:12:19.743Z,56.93
2023-02-09T18:14:47.000Z,56.76
2023-02-09T18:17:17.331Z,56.94
2023-02-09T18:19:44.353Z,57.16
2023-02-09T18:22:17.015Z,57.10
2023-02-09T18:25:00.235Z,57.32
2023-02-09T18:27:27.498Z,57.23
2023-02-09T18:29:55.381Z,57.37
2023-02-09T18:32:25.812Z,57.31
2023-02-09T18:34:52.792Z,57.38
2023-02-09T18:37:19.919Z,57.44
2023-02-09T18:39:47.807Z,57.19
2023-02-09T18:42:35.493Z,57.63
2023-02-09T18:45:03.029Z,57.47
2023-02-09T18:47:50.583Z,57.47
2023-02-09T18:50:28.953Z,57.53
2023-02-09T18:52:58.044Z,57.40
2023-02-09T18:55:29.459Z,57.54
2023-02-09T18:57:57.084Z,57.75
2023-02-09T19:00:24.967Z,57.69
2023-02-09T19:03:02.953Z,57.65
2023-02-09T19:05:32.231Z,57.66
2023-02-09T19:08:01.933Z,57.67
2023-02-09T19:10:30.702Z,58.01
2023-02-09T19:12:57.965Z,57.97
2023-02-09T19:15:26.051Z,57.87
2023-02-09T19:17:55.181Z,57.92
2023-02-09T19:20:27.122Z,57.86
2023-02-09T19:22:55.597Z,57.84
2023-02-09T19:25:28.148Z,58.05
2023-02-09T19:27:56.100Z,58.08
2023-02-09T19:30:30.700Z,58.22
2023-02-09T19:33:01.285Z,58.02
2023-02-09T19:35:39.575Z,58.24
2023-02-09T19:38:06.609Z,58.31
2023-02-09T19:40:41.024Z,58.23
2023-02-09T19:43:12.481Z,58.43
2023-02-09T19:45:39.532Z,58.30
2023-02-09T19:48:08.190Z,57.96
2023-02-09T19:50:36.700Z,58.34
2023-02-09T19:53:03.911Z,58.16
2023-02-09T19:55:52.517Z,58.02
2023-02-09T19:58:21.427Z,58.34
2023-02-09T20:00:58.688Z,58.26
2023-02-09T20:03:26.003Z,58.41
2023-02-09T20:06:15.205Z,58.22
2023-02-09T20:08:43.150Z,58.22
2023-02-09T20:11:12.840Z,58.68
2023-02-09T20:13:40.617Z,58.40
2023-02-09T20:16:12.534Z,58.58
2023-02-09T20:18:43.615Z,58.51
2023-02-09T20:21:12.958Z,58.45
2023-02-09T20:23:40.131Z,58.25
2023-02-09T20:26:14.288Z,58.38
2023-02-09T20:28:43.791Z,58.16
2023-02-09T20:31:11.567Z,58.47
2023-02-09T20:33:40.461Z,58.42
2023-02-09T20:36:10.228Z,58.58
2023-02-09T20:38:38.770Z,58.48
2023-02-09T20:41:10.968Z,58.44
2023-02-09T20:44:06.307Z,58.45
2023-02-09T20:46:54.245Z,58.49
2023-02-09T20:49:21.781Z,58.37
2023-02-09T20:51:48.896Z,58.29
2023-02-09T20:54:17.903Z,58.28
2023-02-09T20:56:45.033Z,58.24
2023-02-09T20:59:12.737Z,58.05
2023-02-09T21:01:41.677Z,58.18
2023-02-09T21:04:09.696Z,57.97
2023-02-09T21:06:38.151Z,57.82
2023-02-09T21:09:05.712Z,57.84
2023-02-09T21:11:32.810Z,57.83
2023-02-09T21:14:01.334Z,57.72
2023-02-09T21:16:32.175Z,57.85
2023-02-09T21:18:59.629Z,57.40
2023-02-09T21:21:27.641Z,57.25
2023-02-09T21:23:54.846Z,57.34
2023-02-09T21:26:24.615Z,57.48
2023-02-09T21:28:52.574Z,57.14
2023-02-09T21:31:23.162Z,57.22
2023-02-09T21:33:52.641Z,57.33
2023-02-09T21:36:22.277Z,57.06
2023-02-09T21:38:49.875Z,56.93
2023-02-09T21:41:38.123Z,57.11
2023-02-09T21:44:05.939Z,57.18
2023-02-09T21:46:33.382Z,57.30
2023-02-09T21:49:00.418Z,57.31
2023-02-09T21:51:28.035Z,57.32
2023-02-09T21:53:55.875Z,57.22
2023-02-09T21:56:23.316Z,57.44
2023-02-09T21:58:50.734Z,57.41
2023-02-09T22:01:18.277Z,57.41
2023-02-09T22:03:48.793Z,57.28
2023-02-09T22:06:16.586Z,57.33
2023-02-09T22:08:43.500Z,57.59
2023-02-09T22:11:13.976Z,57.55
2023-02-09T22:13:41.091Z,57.29
2023-02-09T22:16:11.075Z,57.41
2023-02-09T22:18:38.527Z,57.61
2023-02-09T22:21:09.005Z,57.63
2023-02-09T22:23:36.156Z,57.68
2023-02-09T22:26:05.706Z,57.64
2023-02-09T22:28:43.521Z,57.82
2023-02-09T22:31:12.798Z,57.75
2023-02-09T22:33:40.272Z,57.86
2023-02-09T22:36:27.636Z,58.05
2023-02-09T22:39:14.747Z,57.93
2023-02-09T22:41:51.011Z,58.16
2023-02-09T22:44:20.360Z,58.28
2023-02-09T22:46:50.831Z,58.01
2023-02-09T22:49:20.430Z,58.42
2023-02-09T22:51:49.385Z,58.27
2023-02-09T22:54:18.711Z,58.42
2023-02-09T22:56:46.387Z,58.81
2023-02-09T22:59:15.400Z,58.46
2023-02-09T23:01:42.954Z,58.63
2023-02-09T23:04:14.221Z,58.65
2023-02-09T23:06:50.644Z,58.59
2023-02-09T23:09:17.847Z,58.65
2023-02-09T23:11:45.347Z,58.74
2023-02-09T23:14:12.671Z,58.81
2023-02-09T23:16:49.721Z,58.60
2023-02-09T23:19:19.187Z,59.07
2023-02-09T23:21:48.082Z,58.90
2023-02-09T23:24:16.613Z,58.97
2023-02-09T23:26:45.629Z,59.13
2023-02-09T23:29:15.088Z,59.12
2023-02-09T23:31:42.587Z,59.27
2023-02-09T23:34:12.929Z,59.38
2023-02-09T23:36:39.813Z,59.34
2023-02-09T23:39:08.237Z,59.47
2023-02-09T23:41:36.556Z,59.32
2023-02-09T23:44:04.148Z,59.56
2023-02-09T23:46:31.701Z,59.53
2023-02-09T23:48:59.308Z,59.61
2023-02-09T23:51:28.699Z,59.70
2023-02-09T23:53:57.298Z,59.85
2023-02-09T23:56:24.878Z,60.01
2023-02-09T23:58:53.757Z,59.99
